createdAt,value
2022-08-28T00:00:12.882Z,14.26
2022-08-28T00:02:45.723Z,14.44
2022-08-28T00:05:19.063Z,14.42
2022-08-28T00:07:50.621Z,14.37
2022-08-28T00:10:23.981Z,14.38
2022-08-28T00:12:58.039Z,14.33
2022-08-28T00:15:34.568Z,14.35
2022-08-28T00:18:06.854Z,14.33
2022-08-28T00:20:38.915Z,14.31
2022-08-28T00:23:10.258Z,14.29
2022-08-28T00:25:41.911Z,14.08
2022-08-28T00:28:23.827Z,14.08
2022-08-28T00:30:59.064Z,14.23
2022-08-28T00:33:34.922Z,14.18
2022-08-28T00:36:06.550Z,14.17
2022-08-28T00:38:38.035Z,14.11
2022-08-28T00:41:11.019Z,14.13
2022-08-28T00:43:45.739Z,14.11
2022-08-28T00:46:21.221Z,14.06
2022-08-28T00:48:52.656Z,14.05
2022-08-28T00:51:43.499Z,13.99
2022-08-28T00:54:14.913Z,13.93
2022-08-28T00:56:47.603Z,13.88
2022-08-28T00:59:22.540Z,13.87
2022-08-28T01:01:56.911Z,13.88
2022-08-28T01:04:32.177Z,13.85
2022-08-28T01:07:09.261Z,13.83
2022-08-28T01:09:47.388Z,13.80
2022-08-28T01:12:23.695Z,13.75
2022-08-28T01:14:59.992Z,13.69
2022-08-28T01:17:34.218Z,13.67
2022-08-28T01:20:11.446Z,13.67
2022-08-28T01:23:09.726Z,13.62
2022-08-28T01:25:42.856Z,13.51
2022-08-28T01:28:14.874Z,13.53
2022-08-28T01:30:49.149Z,13.50
2022-08-28T01:33:27.820Z,13.40
2022-08-28T01:35:59.693Z,13.40
2022-08-28T01:38:31.010Z,13.39
2022-08-28T01:41:02.317Z,13.35
2022-08-28T01:43:34.021Z,13.32
2022-08-28T01:46:06.703Z,13.29
2022-08-28T01:48:41.556Z,13.19
2022-08-28T01:51:13.227Z,13.23
2022-08-28T01:53:45.405Z,13.19
2022-08-28T01:56:19.001Z,13.12
2022-08-28T01:58:50.352Z,13.14
2022-08-28T02:01:22.677Z,13.06
2022-08-28T02:03:54.055Z,13.05
2022-08-28T02:06:25.795Z,13.01
2022-08-28T02:08:57.863Z,13.01
2022-08-28T02:11:30.598Z,12.94
2022-08-28T02:14:02.892Z,12.94
2022-08-28T02:16:34.478Z,12.87
2022-08-28T02:19:06.083Z,12.88
2022-08-28T02:21:37.863Z,12.86
2022-08-28T02:24:09.257Z,12.83
2022-08-28T02:26:40.574Z,12.77
2022-08-28T02:29:12.360Z,12.77
2022-08-28T02:31:43.656Z,12.67
2022-08-28T02:34:14.984Z,12.68
2022-08-28T02:36:46.279Z,12.68
2022-08-28T02:39:17.818Z,12.60
2022-08-28T02:41:49.125Z,12.61
2022-08-28T02:44:20.584Z,12.58
2022-08-28T02:46:52.633Z,12.55
2022-08-28T02:49:25.430Z,12.51
2022-08-28T02:52:02.811Z,12.50
2022-08-28T02:54:34.971Z,12.47
2022-08-28T02:57:09.838Z,12.42
2022-08-28T02:59:43.314Z,12.41
2022-08-28T03:02:14.638Z,12.37
2022-08-28T03:04:45.983Z,12.35
2022-08-28T03:07:17.370Z,12.28
2022-08-28T03:09:50.334Z,12.26
2022-08-28T03:12:24.111Z,12.25
2022-08-28T03:14:55.561Z,12.21
2022-08-28T03:17:27.086Z,12.22
2022-08-28T03:19:58.962Z,12.15
2022-08-28T03:22:49.154Z,12.18
2022-08-28T03:25:22.197Z,12.17
2022-08-28T03:27:54.167Z,12.14
2022-08-28T03:30:25.677Z,12.06
2022-08-28T03:32:57.142Z,12.08
2022-08-28T03:35:28.617Z,12.00
2022-08-28T03:38:00.164Z,12.05
2022-08-28T03:40:32.283Z,12.04
2022-08-28T03:43:03.731Z,12.02
2022-08-28T03:45:38.925Z,12.01
2022-08-28T03:48:10.254Z,11.99
2022-08-28T03:50:41.593Z,11.95
2022-08-28T03:53:13.305Z,11.93
2022-08-28T03:55:44.636Z,11.90
2022-08-28T03:58:18.825Z,11.84
2022-08-28T04:00:51.052Z,11.85
2022-08-28T04:03:22.522Z,11.81
2022-08-28T04:05:54.016Z,11.79
2022-08-28T04:08:25.367Z,11.77
2022-08-28T04:10:59.301Z,11.72
2022-08-28T04:13:30.732Z,11.60
2022-08-28T04:16:11.976Z,11.71
2022-08-28T04:18:44.054Z,11.69
2022-08-28T04:21:18.907Z,11.71
2022-08-28T04:23:50.882Z,11.74
2022-08-28T04:26:25.446Z,11.76
2022-08-28T04:28:56.798Z,11.69
2022-08-28T04:31:31.716Z,11.74
2022-08-28T04:34:06.634Z,11.78
2022-08-28T04:36:38.144Z,11.81
2022-08-28T04:39:10.954Z,11.86
2022-08-28T04:41:42.301Z,11.92
2022-08-28T04:44:13.718Z,12.02
2022-08-28T04:46:45.024Z,12.09
2022-08-28T04:49:19.689Z,12.20
2022-08-28T04:51:51.307Z,12.34
2022-08-28T04:54:22.658Z,12.43
2022-08-28T04:56:54.089Z,12.52
2022-08-28T04:59:25.424Z,12.59
2022-08-28T05:01:56.843Z,12.69
2022-08-28T05:04:28.397Z,12.77
2022-08-28T05:06:59.898Z,12.85
2022-08-28T05:09:32.039Z,12.88
2022-08-28T05:12:04.937Z,12.94
2022-08-28T05:14:36.569Z,12.99
2022-08-28T05:17:09.336Z,13.06
2022-08-28T05:19:41.684Z,13.15
2022-08-28T05:22:13.000Z,13.22
2022-08-28T05:24:44.316Z,13.27
2022-08-28T05:27:15.617Z,13.34
2022-08-28T05:29:49.791Z,13.34
2022-08-28T05:32:21.474Z,13.45
2022-08-28T05:34:54.837Z,13.46
2022-08-28T05:37:27.617Z,13.52
2022-08-28T05:40:00.096Z,13.76
2022-08-28T05:42:33.889Z,13.99
2022-08-28T05:45:08.026Z,14.33
2022-08-28T05:47:39.449Z,14.63
2022-08-28T05:50:14.445Z,14.96
2022-08-28T05:52:45.769Z,15.45
2022-08-28T05:55:17.109Z,15.78
2022-08-28T05:57:48.522Z,16.14
2022-08-28T06:00:20.122Z,16.80
2022-08-28T06:02:51.420Z,17.15
2022-08-28T06:05:23.929Z,17.35
2022-08-28T06:07:55.229Z,17.86
2022-08-28T06:10:26.878Z,18.33
2022-08-28T06:12:58.748Z,18.64
2022-08-28T06:15:30.109Z,18.88
2022-08-28T06:18:01.434Z,19.07
2022-08-28T06:20:38.235Z,19.24
2022-08-28T06:23:11.334Z,19.35
2022-08-28T06:25:46.826Z,19.39
2022-08-28T06:28:24.704Z,19.42
2022-08-28T06:31:17.799Z,19.54
2022-08-28T06:33:47.718Z,19.56
2022-08-28T06:36:19.030Z,19.45
2022-08-28T06:38:50.875Z,19.44
2022-08-28T06:41:22.318Z,19.31
2022-08-28T06:43:54.807Z,19.23
2022-08-28T06:46:26.944Z,19.19
2022-08-28T06:48:58.431Z,19.21
2022-08-28T06:51:29.931Z,19.18
2022-08-28T06:54:01.882Z,19.20
2022-08-28T06:56:33.707Z,19.24
2022-08-28T06:59:05.549Z,19.33
2022-08-28T07:01:37.304Z,19.28
2022-08-28T07:04:11.489Z,19.33
2022-08-28T07:06:46.777Z,19.31
2022-08-28T07:09:18.968Z,19.32
2022-08-28T07:11:50.991Z,19.43
2022-08-28T07:14:23.173Z,19.59
2022-08-28T07:16:57.518Z,19.76
2022-08-28T07:19:28.817Z,19.80
2022-08-28T07:22:00.258Z,19.85
2022-08-28T07:24:31.672Z,19.84
2022-08-28T07:27:03.822Z,19.90
2022-08-28T07:29:35.532Z,19.96
2022-08-28T07:32:07.070Z,20.07
2022-08-28T07:34:40.539Z,20.16
2022-08-28T07:37:15.267Z,20.24
2022-08-28T07:39:46.725Z,20.37
2022-08-28T07:42:38.042Z,20.55
2022-08-28T07:45:09.901Z,20.61
2022-08-28T07:47:42.020Z,20.55
2022-08-28T07:50:15.108Z,20.54
2022-08-28T07:52:46.483Z,20.66
2022-08-28T07:55:17.876Z,20.75
2022-08-28T07:57:49.899Z,20.88
2022-08-28T08:00:22.877Z,20.94
2022-08-28T08:02:54.236Z,21.01
2022-08-28T08:05:25.617Z,21.02
2022-08-28T08:07:56.917Z,20.97
2022-08-28T08:10:33.834Z,21.06
2022-08-28T08:13:05.745Z,21.07
2022-08-28T08:15:39.019Z,21.27
2022-08-28T08:18:10.358Z,21.54
2022-08-28T08:20:41.873Z,21.59
2022-08-28T08:23:13.338Z,21.43
2022-08-28T08:25:59.173Z,21.25
2022-08-28T08:28:31.130Z,21.24
2022-08-28T08:31:08.305Z,21.30
2022-08-28T08:33:45.555Z,21.27
2022-08-28T08:36:20.462Z,21.35
2022-08-28T08:38:59.426Z,21.50
2022-08-28T08:41:48.046Z,21.67
2022-08-28T08:44:40.295Z,21.66
2022-08-28T08:47:30.555Z,21.77
2022-08-28T08:50:22.123Z,21.87
2022-08-28T08:53:12.250Z,21.85
2022-08-28T08:55:52.634Z,21.84
2022-08-28T08:58:36.120Z,21.78
2022-08-28T09:01:26.965Z,21.83
2022-08-28T09:04:28.654Z,21.93
2022-08-28T09:07:16.404Z,22.15
2022-08-28T09:09:52.385Z,22.51
2022-08-28T09:12:29.403Z,22.82
2022-08-28T09:15:14.342Z,22.85
2022-08-28T09:17:56.962Z,22.63
2022-08-28T09:20:33.203Z,22.55
2022-08-28T09:23:13.000Z,22.49
2022-08-28T09:25:51.678Z,22.74
2022-08-28T09:28:36.046Z,22.87
2022-08-28T09:31:13.307Z,22.81
2022-08-28T09:33:51.250Z,22.77
2022-08-28T09:36:28.383Z,22.76
2022-08-28T09:39:17.910Z,22.95
2022-08-28T09:42:33.332Z,23.36
2022-08-28T09:45:21.185Z,23.56
2022-08-28T09:47:55.841Z,23.47
2022-08-28T09:50:37.798Z,23.41
2022-08-28T09:53:09.065Z,23.24
2022-08-28T09:56:02.097Z,23.01
2022-08-28T09:58:41.199Z,23.02
2022-08-28T10:01:50.736Z,23.33
2022-08-28T10:04:40.778Z,23.34
2022-08-28T10:07:22.452Z,23.19
2022-08-28T10:10:17.639Z,23.03
2022-08-28T10:13:02.184Z,22.90
2022-08-28T10:16:06.134Z,22.96
2022-08-28T10:19:03.944Z,23.16
2022-08-28T10:21:49.342Z,23.36
2022-08-28T10:24:39.035Z,23.46
2022-08-28T10:27:32.373Z,23.31
2022-08-28T10:30:13.182Z,22.91
2022-08-28T10:32:57.257Z,22.56
2022-08-28T10:35:58.750Z,22.80
2022-08-28T10:38:47.232Z,23.36
2022-08-28T10:41:47.801Z,23.92
2022-08-28T10:44:31.791Z,24.11
2022-08-28T10:47:05.494Z,23.77
2022-08-28T10:49:41.465Z,23.43
2022-08-28T10:52:35.689Z,23.38
2022-08-28T10:55:34.592Z,23.70
2022-08-28T10:58:25.097Z,24.00
2022-08-28T11:01:02.082Z,24.30
2022-08-28T11:03:45.015Z,24.23
2022-08-28T11:06:38.483Z,23.96
2022-08-28T11:09:25.802Z,23.78
2022-08-28T11:12:04.140Z,23.90
2022-08-28T11:14:48.376Z,24.00
2022-08-28T11:17:25.631Z,23.93
2022-08-28T11:20:19.051Z,23.79
2022-08-28T11:23:10.418Z,23.84
2022-08-28T11:25:45.271Z,23.97
2022-08-28T11:28:23.965Z,23.97
2022-08-28T11:30:58.317Z,23.82
2022-08-28T11:33:45.215Z,23.75
2022-08-28T11:36:19.420Z,23.74
2022-08-28T11:38:50.676Z,23.84
2022-08-28T11:41:32.014Z,23.85
2022-08-28T11:44:09.551Z,23.73
2022-08-28T11:47:23.862Z,23.73
2022-08-28T11:49:55.210Z,23.73
2022-08-28T11:52:48.128Z,23.97
2022-08-28T11:55:32.490Z,24.29
2022-08-28T11:58:15.768Z,24.34
2022-08-28T12:01:12.803Z,24.26
2022-08-28T12:04:01.973Z,24.19
2022-08-28T12:06:45.044Z,23.94
2022-08-28T12:09:42.513Z,23.71
2022-08-28T12:12:46.227Z,23.62
2022-08-28T12:15:29.731Z,23.79
2022-08-28T12:18:05.089Z,23.87
2022-08-28T12:20:57.674Z,24.12
2022-08-28T12:23:45.199Z,24.60
2022-08-28T12:26:25.367Z,24.97
2022-08-28T12:29:07.165Z,24.76
2022-08-28T12:32:10.163Z,24.50
2022-08-28T12:35:02.121Z,24.10
2022-08-28T12:38:00.905Z,23.74
2022-08-28T12:40:50.367Z,23.82
2022-08-28T12:43:46.418Z,23.97
2022-08-28T12:46:26.978Z,24.36
2022-08-28T12:49:01.270Z,24.82
2022-08-28T12:51:36.813Z,25.01
2022-08-28T12:54:08.759Z,24.73
2022-08-28T12:56:40.250Z,24.32
2022-08-28T12:59:27.118Z,23.90
2022-08-28T13:02:07.057Z,23.71
2022-08-28T13:04:42.240Z,23.56
2022-08-28T13:07:16.962Z,23.43
2022-08-28T13:09:52.576Z,23.53
2022-08-28T13:12:34.899Z,23.83
2022-08-28T13:15:51.737Z,24.18
2022-08-28T13:18:40.317Z,24.25
2022-08-28T13:21:33.120Z,24.32
2022-08-28T13:24:24.003Z,24.35
2022-08-28T13:27:14.175Z,24.18
2022-08-28T13:29:57.398Z,24.07
2022-08-28T13:32:35.976Z,24.01
2022-08-28T13:35:22.618Z,23.93
2022-08-28T13:38:00.506Z,23.86
2022-08-28T13:40:57.497Z,23.83
2022-08-28T13:43:43.506Z,23.93
2022-08-28T13:46:14.896Z,23.89
2022-08-28T13:48:46.310Z,23.77
2022-08-28T13:51:21.179Z,23.60
2022-08-28T13:53:52.859Z,23.52
2022-08-28T13:56:25.018Z,23.47
2022-08-28T13:58:57.276Z,23.28
2022-08-28T14:01:49.412Z,23.16
2022-08-28T14:04:20.841Z,23.19
2022-08-28T14:06:52.267Z,23.29
2022-08-28T14:09:23.951Z,23.27
2022-08-28T14:11:55.720Z,23.26
2022-08-28T14:14:27.052Z,23.37
2022-08-28T14:16:58.958Z,23.43
2022-08-28T14:19:30.437Z,23.56
2022-08-28T14:22:01.821Z,23.57
2022-08-28T14:24:33.165Z,23.51
2022-08-28T14:27:04.629Z,23.39
2022-08-28T14:29:38.059Z,23.24
2022-08-28T14:32:09.451Z,23.06
2022-08-28T14:34:41.228Z,22.81
2022-08-28T14:37:13.067Z,22.54
2022-08-28T14:39:44.493Z,22.25
2022-08-28T14:42:15.936Z,22.18
2022-08-28T14:44:47.262Z,22.15
2022-08-28T14:47:18.930Z,22.17
2022-08-28T14:49:50.667Z,22.32
2022-08-28T14:52:22.799Z,22.38
2022-08-28T14:54:54.099Z,22.34
2022-08-28T14:57:25.471Z,22.22
2022-08-28T14:59:56.794Z,22.06
2022-08-28T15:02:28.246Z,21.98
2022-08-28T15:04:59.729Z,21.94
2022-08-28T15:07:31.071Z,21.96
2022-08-28T15:10:02.492Z,21.92
2022-08-28T15:12:33.838Z,21.86
2022-08-28T15:15:05.607Z,21.86
2022-08-28T15:17:36.954Z,21.92
2022-08-28T15:20:08.944Z,22.08
2022-08-28T15:22:40.287Z,22.10
2022-08-28T15:25:11.970Z,22.11
2022-08-28T15:27:43.395Z,22.27
2022-08-28T15:30:15.796Z,22.37
2022-08-28T15:32:48.698Z,22.28
2022-08-28T15:35:20.107Z,22.12
2022-08-28T15:37:51.477Z,21.94
2022-08-28T15:40:41.585Z,21.87
2022-08-28T15:43:13.236Z,21.82
2022-08-28T15:45:44.825Z,21.80
2022-08-28T15:48:16.250Z,21.77
2022-08-28T15:50:47.545Z,21.79
2022-08-28T15:53:19.351Z,21.76
2022-08-28T15:55:50.716Z,21.70
2022-08-28T15:58:22.129Z,21.64
2022-08-28T16:00:53.605Z,21.60
2022-08-28T16:03:26.454Z,21.51
2022-08-28T16:05:59.187Z,21.47
2022-08-28T16:08:31.148Z,21.51
2022-08-28T16:11:02.459Z,21.55
2022-08-28T16:13:34.040Z,21.69
2022-08-28T16:16:05.538Z,21.86
2022-08-28T16:18:37.126Z,21.92
2022-08-28T16:21:09.406Z,21.94
2022-08-28T16:23:40.838Z,21.94
2022-08-28T16:26:15.744Z,21.90
2022-08-28T16:28:47.102Z,21.91
2022-08-28T16:31:20.568Z,21.84
2022-08-28T16:33:53.470Z,21.71
2022-08-28T16:36:25.203Z,21.51
2022-08-28T16:39:03.670Z,21.33
2022-08-28T16:41:35.237Z,21.22
2022-08-28T16:44:06.643Z,21.17
2022-08-28T16:46:37.985Z,21.08
2022-08-28T16:49:10.882Z,20.97
2022-08-28T16:51:42.200Z,20.87
2022-08-28T16:54:13.625Z,20.73
2022-08-28T16:56:46.173Z,20.72
2022-08-28T16:59:20.376Z,20.69
2022-08-28T17:01:55.863Z,20.72
2022-08-28T17:04:27.197Z,20.71
2022-08-28T17:06:59.394Z,20.70
2022-08-28T17:09:31.538Z,20.69
2022-08-28T17:12:03.153Z,20.69
2022-08-28T17:14:35.670Z,20.69
2022-08-28T17:17:07.477Z,20.64
2022-08-28T17:19:39.610Z,20.54
2022-08-28T17:22:29.665Z,20.54
2022-08-28T17:25:13.431Z,20.48
2022-08-28T17:27:44.851Z,20.39
2022-08-28T17:30:18.144Z,20.32
2022-08-28T17:32:49.689Z,20.25
2022-08-28T17:35:22.001Z,20.24
2022-08-28T17:37:55.595Z,20.21
2022-08-28T17:40:27.216Z,20.14
2022-08-28T17:42:58.710Z,20.06
2022-08-28T17:45:30.209Z,20.01
2022-08-28T17:48:01.639Z,19.99
2022-08-28T17:50:33.062Z,19.96
2022-08-28T17:53:04.850Z,19.91
2022-08-28T17:55:36.373Z,19.83
2022-08-28T17:58:08.262Z,19.76
2022-08-28T18:00:41.020Z,19.77
2022-08-28T18:03:12.562Z,19.64
2022-08-28T18:05:44.033Z,19.52
2022-08-28T18:08:15.543Z,19.43
2022-08-28T18:10:47.186Z,19.34
2022-08-28T18:13:18.888Z,19.22
2022-08-28T18:15:51.403Z,19.19
2022-08-28T18:18:34.441Z,19.07
2022-08-28T18:21:12.358Z,18.95
2022-08-28T18:23:43.675Z,18.85
2022-08-28T18:26:17.403Z,18.74
2022-08-28T18:28:49.510Z,18.65
2022-08-28T18:31:20.924Z,18.51
2022-08-28T18:33:54.154Z,18.47
2022-08-28T18:36:25.753Z,18.35
2022-08-28T18:38:57.873Z,18.30
2022-08-28T18:41:44.112Z,18.26
2022-08-28T18:44:17.106Z,18.23
2022-08-28T18:46:49.750Z,18.28
2022-08-28T18:49:21.159Z,18.30
2022-08-28T18:51:53.648Z,18.39
2022-08-28T18:54:25.281Z,18.46
2022-08-28T18:57:04.306Z,18.49
2022-08-28T18:59:35.812Z,18.53
2022-08-28T19:02:07.401Z,18.58
2022-08-28T19:04:39.001Z,18.60
2022-08-28T19:07:14.094Z,18.61
2022-08-28T19:09:45.406Z,18.64
2022-08-28T19:12:16.920Z,18.66
2022-08-28T19:14:48.364Z,18.68
2022-08-28T19:17:21.181Z,18.64
2022-08-28T19:19:54.261Z,18.67
2022-08-28T19:22:25.590Z,18.68
2022-08-28T19:25:27.970Z,18.69
2022-08-28T19:28:01.667Z,18.68
2022-08-28T19:30:33.876Z,18.67
2022-08-28T19:33:05.775Z,18.61
2022-08-28T19:35:37.083Z,18.57
2022-08-28T19:38:10.894Z,18.47
2022-08-28T19:40:42.395Z,18.47
2022-08-28T19:43:16.864Z,18.47
2022-08-28T19:45:48.723Z,18.45
2022-08-28T19:48:20.139Z,18.41
2022-08-28T19:51:00.814Z,18.36
2022-08-28T19:53:32.230Z,18.34
2022-08-28T19:56:06.122Z,18.29
2022-08-28T19:58:37.640Z,18.27
2022-08-28T20:01:09.178Z,18.23
2022-08-28T20:03:40.665Z,18.21
2022-08-28T20:06:12.311Z,18.22
2022-08-28T20:08:44.281Z,18.22
2022-08-28T20:11:24.471Z,18.21
2022-08-28T20:13:57.829Z,18.14
2022-08-28T20:16:36.736Z,18.03
2022-08-28T20:19:10.467Z,17.99
2022-08-28T20:21:44.200Z,17.90
2022-08-28T20:24:20.383Z,17.81
2022-08-28T20:26:52.951Z,17.73
2022-08-28T20:29:24.823Z,17.74
2022-08-28T20:31:56.746Z,17.74
2022-08-28T20:34:28.444Z,17.78
2022-08-28T20:36:59.793Z,17.82
2022-08-28T20:39:31.151Z,17.86
2022-08-28T20:42:03.183Z,17.86
2022-08-28T20:44:35.167Z,17.93
2022-08-28T20:47:06.729Z,17.98
2022-08-28T20:49:39.906Z,18.00
2022-08-28T20:52:11.385Z,17.95
2022-08-28T20:54:43.769Z,17.87
2022-08-28T20:57:18.210Z,17.80
2022-08-28T20:59:49.681Z,17.72
2022-08-28T21:02:23.876Z,17.72
2022-08-28T21:04:55.821Z,17.73
2022-08-28T21:07:27.748Z,17.78
2022-08-28T21:10:06.890Z,17.83
2022-08-28T21:12:40.082Z,17.89
2022-08-28T21:15:12.710Z,17.88
2022-08-28T21:17:44.026Z,17.94
2022-08-28T21:20:16.058Z,17.96
2022-08-28T21:22:48.543Z,18.03
2022-08-28T21:25:21.459Z,18.04
2022-08-28T21:27:53.187Z,18.05
2022-08-28T21:30:29.564Z,18.08
2022-08-28T21:33:01.333Z,18.07
2022-08-28T21:35:32.951Z,18.04
2022-08-28T21:38:04.311Z,18.05
2022-08-28T21:40:35.763Z,17.99
2022-08-28T21:43:07.210Z,17.95
2022-08-28T21:45:38.646Z,18.04
2022-08-28T21:48:10.039Z,18.05
2022-08-28T21:50:44.698Z,18.11
2022-08-28T21:53:16.506Z,18.11
2022-08-28T21:55:53.600Z,18.02
2022-08-28T21:58:25.041Z,18.09
2022-08-28T22:00:59.394Z,18.12
2022-08-28T22:03:31.400Z,18.13
2022-08-28T22:06:02.744Z,18.18
2022-08-28T22:08:34.293Z,18.18
2022-08-28T22:11:05.739Z,18.18
2022-08-28T22:13:37.901Z,18.15
2022-08-28T22:16:09.825Z,18.15
2022-08-28T22:18:41.491Z,18.16
2022-08-28T22:21:34.190Z,18.14
2022-08-28T22:24:06.186Z,18.15
2022-08-28T22:26:37.872Z,18.11
2022-08-28T22:29:10.650Z,18.18
2022-08-28T22:31:46.124Z,18.20
2022-08-28T22:34:17.636Z,18.21
2022-08-28T22:36:48.954Z,18.21
2022-08-28T22:39:20.258Z,18.20
2022-08-28T22:41:51.557Z,18.19
2022-08-28T22:44:22.899Z,18.16
2022-08-28T22:46:54.278Z,18.14
2022-08-28T22:49:25.680Z,18.18
2022-08-28T22:51:57.041Z,18.16
2022-08-28T22:54:28.400Z,18.15
2022-08-28T22:56:59.725Z,18.17
2022-08-28T22:59:31.576Z,18.14
2022-08-28T23:02:04.069Z,18.15
2022-08-28T23:04:35.388Z,18.13
2022-08-28T23:07:06.776Z,18.12
2022-08-28T23:09:38.359Z,18.08
2022-08-28T23:12:10.258Z,18.08
2022-08-28T23:14:45.293Z,18.08
2022-08-28T23:17:19.842Z,18.06
2022-08-28T23:19:51.537Z,18.03
2022-08-28T23:22:22.852Z,18.07
2022-08-28T23:24:54.145Z,18.04
2022-08-28T23:27:36.320Z,18.07
2022-08-28T23:30:08.351Z,18.11
2022-08-28T23:32:40.261Z,18.14
2022-08-28T23:35:13.907Z,18.16
2022-08-28T23:37:48.877Z,18.12
2022-08-28T23:40:24.362Z,18.15
2022-08-28T23:42:56.523Z,18.17
2022-08-28T23:45:28.721Z,18.20
2022-08-28T23:48:01.041Z,18.23
2022-08-28T23:50:32.617Z,18.25
2022-08-28T23:53:04.585Z,18.21
2022-08-28T23:55:36.782Z,18.27
2022-08-28T23:58:08.729Z,18.29
